sensor_id;sensor_type;location;lat;lon;timestamp;P1;durP1;ratioP1;P2;durP2;ratioP2
15764;SDS011;7983;50.744;7.086;2023-02-20T00:00:30;7.40;;;5.70;;
15764;SDS011;7983;50.744;7.086;2023-02-20T00:02:57;8.20;;;5.63;;
15764;SDS011;7983;50.744;7.086;2023-02-20T00:05:23;6.67;;;5.67;;
15764;SDS011;7983;50.744;7.086;2023-02-20T00:07:49;8.17;;;5.70;;
15764;SDS011;7983;50.744;7.086;2023-02-20T00:10:15;7.30;;;5.57;;
15764;SDS011;7983;50.744;7.086;2023-02-20T00:12:44;6.33;;;5.00;;
15764;SDS011;7983;50.744;7.086;2023-02-20T00:15:18;7.77;;;5.30;;
15764;SDS011;7983;50.744;7.086;2023-02-20T00:17:46;7.57;;;4.97;;
15764;SDS011;7983;50.744;7.086;2023-02-20T00:20:15;7.83;;;5.67;;
15764;SDS011;7983;50.744;7.086;2023-02-20T00:22:44;7.63;;;5.77;;
15764;SDS011;7983;50.744;7.086;2023-02-20T00:25:15;8.07;;;5.73;;
15764;SDS011;7983;50.744;7.086;2023-02-20T00:27:45;7.37;;;5.57;;
15764;SDS011;7983;50.744;7.086;2023-02-20T00:30:14;7.33;;;5.70;;
15764;SDS011;7983;50.744;7.086;2023-02-20T00:32:48;7.50;;;5.63;;
15764;SDS011;7983;50.744;7.086;2023-02-20T00:35:17;7.53;;;5.77;;
15764;SDS011;7983;50.744;7.086;2023-02-20T00:37:44;8.67;;;6.37;;
15764;SDS011;7983;50.744;7.086;2023-02-20T00:40:11;8.00;;;5.77;;
15764;SDS011;7983;50.744;7.086;2023-02-20T00:42:37;6.97;;;5.60;;
15764;SDS011;7983;50.744;7.086;2023-02-20T00:45:03;7.03;;;5.07;;
15764;SDS011;7983;50.744;7.086;2023-02-20T00:47:29;6.63;;;5.23;;
15764;SDS011;7983;50.744;7.086;2023-02-20T00:49:59;8.50;;;5.43;;
15764;SDS011;7983;50.744;7.086;2023-02-20T00:52:27;6.83;;;5.10;;
15764;SDS011;7983;50.744;7.086;2023-02-20T00:54:55;7.37;;;5.00;;
15764;SDS011;7983;50.744;7.086;2023-02-20T00:57:21;5.87;;;4.57;;
15764;SDS011;7983;50.744;7.086;2023-02-20T00:59:46;6.83;;;4.50;;
15764;SDS011;7983;50.744;7.086;2023-02-20T01:02:12;5.83;;;4.90;;
15764;SDS011;7983;50.744;7.086;2023-02-20T01:04:38;6.13;;;4.53;;
15764;SDS011;7983;50.744;7.086;2023-02-20T01:07:04;6.77;;;4.43;;
15764;SDS011;7983;50.744;7.086;2023-02-20T01:09:29;5.43;;;4.13;;
15764;SDS011;7983;50.744;7.086;2023-02-20T01:11:55;6.00;;;4.33;;
15764;SDS011;7983;50.744;7.086;2023-02-20T01:14:23;4.20;;;3.63;;
15764;SDS011;7983;50.744;7.086;2023-02-20T01:16:50;5.13;;;4.20;;
15764;SDS011;7983;50.744;7.086;2023-02-20T01:19:22;5.33;;;4.17;;
15764;SDS011;7983;50.744;7.086;2023-02-20T01:21:50;4.33;;;3.70;;
15764;SDS011;7983;50.744;7.086;2023-02-20T01:24:21;4.80;;;3.60;;
15764;SDS011;7983;50.744;7.086;2023-02-20T01:26:49;4.70;;;3.87;;
15764;SDS011;7983;50.744;7.086;2023-02-20T01:29:16;5.03;;;3.50;;
15764;SDS011;7983;50.744;7.086;2023-02-20T01:31:49;4.50;;;3.50;;
15764;SDS011;7983;50.744;7.086;2023-02-20T01:34:15;4.37;;;3.40;;
15764;SDS011;7983;50.744;7.086;2023-02-20T01:36:46;5.50;;;4.03;;
15764;SDS011;7983;50.744;7.086;2023-02-20T01:39:17;4.10;;;3.43;;
15764;SDS011;7983;50.744;7.086;2023-02-20T01:42:05;4.33;;;3.27;;
15764;SDS011;7983;50.744;7.086;2023-02-20T01:44:34;3.83;;;3.13;;
15764;SDS011;7983;50.744;7.086;2023-02-20T01:47:07;3.50;;;3.07;;
15764;SDS011;7983;50.744;7.086;2023-02-20T01:49:43;4.83;;;2.87;;
15764;SDS011;7983;50.744;7.086;2023-02-20T01:52:25;4.23;;;2.83;;
15764;SDS011;7983;50.744;7.086;2023-02-20T01:54:54;3.73;;;3.00;;
15764;SDS011;7983;50.744;7.086;2023-02-20T01:57:23;3.40;;;2.83;;
15764;SDS011;7983;50.744;7.086;2023-02-20T01:59:58;4.07;;;2.90;;
15764;SDS011;7983;50.744;7.086;2023-02-20T02:02:32;4.30;;;2.97;;
15764;SDS011;7983;50.744;7.086;2023-02-20T02:05:01;3.50;;;2.73;;
15764;SDS011;7983;50.744;7.086;2023-02-20T02:07:30;3.63;;;2.80;;
15764;SDS011;7983;50.744;7.086;2023-02-20T02:10:06;4.30;;;2.60;;
15764;SDS011;7983;50.744;7.086;2023-02-20T02:12:33;3.47;;;2.30;;
15764;SDS011;7983;50.744;7.086;2023-02-20T02:15:00;3.27;;;2.97;;
15764;SDS011;7983;50.744;7.086;2023-02-20T02:28:29;3.77;;;3.10;;
15764;SDS011;7983;50.744;7.086;2023-02-20T02:47:47;4.80;;;3.00;;
15764;SDS011;7983;50.744;7.086;2023-02-20T02:50:28;5.60;;;2.80;;
15764;SDS011;7983;50.744;7.086;2023-02-20T02:53:02;3.53;;;2.87;;
15764;SDS011;7983;50.744;7.086;2023-02-20T02:55:29;3.60;;;3.10;;
15764;SDS011;7983;50.744;7.086;2023-02-20T02:58:00;3.20;;;2.90;;
15764;SDS011;7983;50.744;7.086;2023-02-20T03:00:38;3.90;;;2.63;;
15764;SDS011;7983;50.744;7.086;2023-02-20T03:06:21;5.13;;;3.13;;
15764;SDS011;7983;50.744;7.086;2023-02-20T03:08:59;4.40;;;3.17;;
15764;SDS011;7983;50.744;7.086;2023-02-20T03:11:32;4.57;;;3.07;;
15764;SDS011;7983;50.744;7.086;2023-02-20T03:14:07;5.03;;;3.33;;
15764;SDS011;7983;50.744;7.086;2023-02-20T03:17:02;5.27;;;3.00;;
15764;SDS011;7983;50.744;7.086;2023-02-20T03:19:59;6.23;;;3.17;;
15764;SDS011;7983;50.744;7.086;2023-02-20T03:25:28;4.87;;;3.47;;
15764;SDS011;7983;50.744;7.086;2023-02-20T03:33:20;4.30;;;3.33;;
15764;SDS011;7983;50.744;7.086;2023-02-20T03:36:18;3.73;;;2.90;;
15764;SDS011;7983;50.744;7.086;2023-02-20T03:39:21;3.67;;;2.60;;
15764;SDS011;7983;50.744;7.086;2023-02-20T03:42:11;4.43;;;3.20;;
15764;SDS011;7983;50.744;7.086;2023-02-20T03:45:00;3.70;;;3.00;;
15764;SDS011;7983;50.744;7.086;2023-02-20T03:47:28;4.20;;;3.17;;
15764;SDS011;7983;50.744;7.086;2023-02-20T03:49:55;4.37;;;3.07;;
15764;SDS011;7983;50.744;7.086;2023-02-20T03:52:28;4.13;;;3.37;;
15764;SDS011;7983;50.744;7.086;2023-02-20T03:54:53;4.10;;;3.30;;
15764;SDS011;7983;50.744;7.086;2023-02-20T03:57:20;4.60;;;3.30;;
15764;SDS011;7983;50.744;7.086;2023-02-20T03:59:54;5.17;;;3.50;;
15764;SDS011;7983;50.744;7.086;2023-02-20T04:02:30;4.70;;;3.33;;
15764;SDS011;7983;50.744;7.086;2023-02-20T04:05:02;4.83;;;3.60;;
15764;SDS011;7983;50.744;7.086;2023-02-20T04:10:40;5.17;;;3.80;;
15764;SDS011;7983;50.744;7.086;2023-02-20T04:13:20;4.57;;;3.57;;
15764;SDS011;7983;50.744;7.086;2023-02-20T04:15:46;4.10;;;3.60;;
15764;SDS011;7983;50.744;7.086;2023-02-20T04:18:14;4.63;;;3.77;;
15764;SDS011;7983;50.744;7.086;2023-02-20T04:20:42;5.33;;;4.00;;
15764;SDS011;7983;50.744;7.086;2023-02-20T04:23:16;5.03;;;3.80;;
15764;SDS011;7983;50.744;7.086;2023-02-20T04:25:52;6.03;;;3.77;;
15764;SDS011;7983;50.744;7.086;2023-02-20T04:28:21;5.27;;;4.27;;
15764;SDS011;7983;50.744;7.086;2023-02-20T04:30:48;5.37;;;4.27;;
15764;SDS011;7983;50.744;7.086;2023-02-20T04:33:15;5.40;;;3.83;;
15764;SDS011;7983;50.744;7.086;2023-02-20T04:35:44;5.80;;;4.10;;
15764;SDS011;7983;50.744;7.086;2023-02-20T04:38:12;5.90;;;4.27;;
15764;SDS011;7983;50.744;7.086;2023-02-20T04:40:38;6.60;;;4.57;;
15764;SDS011;7983;50.744;7.086;2023-02-20T04:43:07;6.20;;;4.20;;
15764;SDS011;7983;50.744;7.086;2023-02-20T04:45:34;6.77;;;4.60;;
15764;SDS011;7983;50.744;7.086;2023-02-20T04:48:01;6.63;;;4.77;;
15764;SDS011;7983;50.744;7.086;2023-02-20T04:50:30;5.80;;;4.37;;
15764;SDS011;7983;50.744;7.086;2023-02-20T04:53:01;5.73;;;4.37;;
15764;SDS011;7983;50.744;7.086;2023-02-20T04:55:27;8.40;;;4.90;;
15764;SDS011;7983;50.744;7.086;2023-02-20T04:57:53;5.97;;;4.63;;
15764;SDS011;7983;50.744;7.086;2023-02-20T05:00:20;5.23;;;4.17;;
15764;SDS011;7983;50.744;7.086;2023-02-20T05:02:46;5.43;;;4.40;;
15764;SDS011;7983;50.744;7.086;2023-02-20T05:05:17;5.20;;;4.07;;
15764;SDS011;7983;50.744;7.086;2023-02-20T05:07:46;4.97;;;4.10;;
15764;SDS011;7983;50.744;7.086;2023-02-20T05:10:16;6.83;;;4.60;;
15764;SDS011;7983;50.744;7.086;2023-02-20T05:12:43;4.97;;;4.00;;
15764;SDS011;7983;50.744;7.086;2023-02-20T05:15:14;5.07;;;3.87;;
15764;SDS011;7983;50.744;7.086;2023-02-20T05:17:39;5.60;;;4.07;;
15764;SDS011;7983;50.744;7.086;2023-02-20T05:20:05;4.57;;;3.70;;
15764;SDS011;7983;50.744;7.086;2023-02-20T05:22:32;5.27;;;4.13;;
15764;SDS011;7983;50.744;7.086;2023-02-20T05:24:58;7.17;;;4.27;;
15764;SDS011;7983;50.744;7.086;2023-02-20T05:27:29;5.77;;;4.03;;
15764;SDS011;7983;50.744;7.086;2023-02-20T05:29:58;5.57;;;4.00;;
15764;SDS011;7983;50.744;7.086;2023-02-20T05:32:27;6.37;;;4.23;;
15764;SDS011;7983;50.744;7.086;2023-02-20T05:34:57;6.83;;;4.23;;
15764;SDS011;7983;50.744;7.086;2023-02-20T05:37:23;5.50;;;4.20;;
15764;SDS011;7983;50.744;7.086;2023-02-20T05:39:50;6.20;;;3.70;;
15764;SDS011;7983;50.744;7.086;2023-02-20T05:42:20;5.60;;;4.13;;
15764;SDS011;7983;50.744;7.086;2023-02-20T05:44:47;6.33;;;3.83;;
15764;SDS011;7983;50.744;7.086;2023-02-20T05:47:13;7.13;;;4.07;;
15764;SDS011;7983;50.744;7.086;2023-02-20T05:49:41;6.97;;;4.37;;
15764;SDS011;7983;50.744;7.086;2023-02-20T05:52:07;5.27;;;3.87;;
15764;SDS011;7983;50.744;7.086;2023-02-20T05:54:36;4.60;;;3.60;;
15764;SDS011;7983;50.744;7.086;2023-02-20T05:57:03;5.13;;;3.67;;
15764;SDS011;7983;50.744;7.086;2023-02-20T05:59:29;4.63;;;3.67;;
15764;SDS011;7983;50.744;7.086;2023-02-20T06:01:57;4.87;;;3.37;;
15764;SDS011;7983;50.744;7.086;2023-02-20T06:04:26;5.63;;;3.73;;
15764;SDS011;7983;50.744;7.086;2023-02-20T06:06:54;4.97;;;3.57;;
15764;SDS011;7983;50.744;7.086;2023-02-20T06:09:25;5.23;;;3.47;;
15764;SDS011;7983;50.744;7.086;2023-02-20T06:11:52;4.83;;;3.30;;
15764;SDS011;7983;50.744;7.086;2023-02-20T06:14:20;5.47;;;3.90;;
15764;SDS011;7983;50.744;7.086;2023-02-20T06:16:46;5.47;;;3.90;;
15764;SDS011;7983;50.744;7.086;2023-02-20T06:19:19;5.23;;;3.47;;
15764;SDS011;7983;50.744;7.086;2023-02-20T06:21:47;4.63;;;3.30;;
15764;SDS011;7983;50.744;7.086;2023-02-20T06:24:15;5.17;;;3.33;;
15764;SDS011;7983;50.744;7.086;2023-02-20T06:26:44;3.80;;;3.00;;
15764;SDS011;7983;50.744;7.086;2023-02-20T06:29:15;4.87;;;3.10;;
15764;SDS011;7983;50.744;7.086;2023-02-20T06:31:42;5.63;;;2.87;;
15764;SDS011;7983;50.744;7.086;2023-02-20T06:34:08;3.67;;;2.73;;
15764;SDS011;7983;50.744;7.086;2023-02-20T06:36:35;3.33;;;2.73;;
15764;SDS011;7983;50.744;7.086;2023-02-20T06:39:07;3.40;;;2.83;;
15764;SDS011;7983;50.744;7.086;2023-02-20T06:41:36;5.20;;;3.30;;
15764;SDS011;7983;50.744;7.086;2023-02-20T06:44:02;4.20;;;2.93;;
15764;SDS011;7983;50.744;7.086;2023-02-20T06:46:28;3.60;;;2.80;;
15764;SDS011;7983;50.744;7.086;2023-02-20T06:48:55;4.93;;;3.10;;
15764;SDS011;7983;50.744;7.086;2023-02-20T06:51:23;4.63;;;2.70;;
15764;SDS011;7983;50.744;7.086;2023-02-20T06:53:53;3.90;;;2.97;;
15764;SDS011;7983;50.744;7.086;2023-02-20T06:56:20;4.40;;;2.90;;
15764;SDS011;7983;50.744;7.086;2023-02-20T06:58:48;4.80;;;3.43;;
15764;SDS011;7983;50.744;7.086;2023-02-20T07:01:16;4.20;;;3.47;;
15764;SDS011;7983;50.744;7.086;2023-02-20T07:03:45;4.43;;;3.00;;
15764;SDS011;7983;50.744;7.086;2023-02-20T07:06:16;4.70;;;3.37;;
15764;SDS011;7983;50.744;7.086;2023-02-20T07:08:42;3.57;;;2.70;;
15764;SDS011;7983;50.744;7.086;2023-02-20T07:11:08;5.40;;;3.10;;
15764;SDS011;7983;50.744;7.086;2023-02-20T07:13:34;5.23;;;2.97;;
15764;SDS011;7983;50.744;7.086;2023-02-20T07:16:00;4.23;;;3.10;;
15764;SDS011;7983;50.744;7.086;2023-02-20T07:18:25;4.23;;;2.77;;
15764;SDS011;7983;50.744;7.086;2023-02-20T07:20:53;4.07;;;3.00;;
15764;SDS011;7983;50.744;7.086;2023-02-20T07:23:19;4.40;;;3.20;;
15764;SDS011;7983;50.744;7.086;2023-02-20T07:25:45;5.27;;;2.97;;
15764;SDS011;7983;50.744;7.086;2023-02-20T07:28:12;4.77;;;3.33;;
15764;SDS011;7983;50.744;7.086;2023-02-20T07:30:38;4.53;;;3.53;;
15764;SDS011;7983;50.744;7.086;2023-02-20T07:33:06;5.53;;;3.40;;
15764;SDS011;7983;50.744;7.086;2023-02-20T07:35:31;4.63;;;2.90;;
15764;SDS011;7983;50.744;7.086;2023-02-20T07:37:59;4.23;;;3.10;;
15764;SDS011;7983;50.744;7.086;2023-02-20T07:40:25;5.07;;;3.40;;
15764;SDS011;7983;50.744;7.086;2023-02-20T07:42:53;6.30;;;3.67;;
15764;SDS011;7983;50.744;7.086;2023-02-20T07:45:18;5.40;;;3.33;;
15764;SDS011;7983;50.744;7.086;2023-02-20T07:47:44;4.83;;;3.50;;
15764;SDS011;7983;50.744;7.086;2023-02-20T07:50:15;6.07;;;3.47;;
15764;SDS011;7983;50.744;7.086;2023-02-20T07:52:41;5.83;;;3.30;;
15764;SDS011;7983;50.744;7.086;2023-02-20T07:55:08;5.17;;;3.50;;
15764;SDS011;7983;50.744;7.086;2023-02-20T07:57:34;4.53;;;3.37;;
15764;SDS011;7983;50.744;7.086;2023-02-20T08:00:01;5.93;;;3.60;;
15764;SDS011;7983;50.744;7.086;2023-02-20T08:02:30;5.63;;;3.67;;
15764;SDS011;7983;50.744;7.086;2023-02-20T08:04:58;5.30;;;3.80;;
15764;SDS011;7983;50.744;7.086;2023-02-20T08:07:26;6.20;;;3.50;;
15764;SDS011;7983;50.744;7.086;2023-02-20T08:09:55;4.83;;;3.07;;
15764;SDS011;7983;50.744;7.086;2023-02-20T08:12:20;3.73;;;2.77;;
15764;SDS011;7983;50.744;7.086;2023-02-20T08:14:48;3.67;;;2.53;;
15764;SDS011;7983;50.744;7.086;2023-02-20T08:17:15;3.80;;;2.70;;
15764;SDS011;7983;50.744;7.086;2023-02-20T08:19:41;3.70;;;2.73;;
15764;SDS011;7983;50.744;7.086;2023-02-20T08:25:29;4.00;;;2.83;;
15764;SDS011;7983;50.744;7.086;2023-02-20T08:27:56;4.37;;;3.03;;
15764;SDS011;7983;50.744;7.086;2023-02-20T08:30:23;3.97;;;2.93;;
15764;SDS011;7983;50.744;7.086;2023-02-20T08:32:54;3.20;;;2.53;;
15764;SDS011;7983;50.744;7.086;2023-02-20T08:35:22;5.00;;;3.10;;
15764;SDS011;7983;50.744;7.086;2023-02-20T08:37:48;4.03;;;3.00;;
15764;SDS011;7983;50.744;7.086;2023-02-20T08:40:17;3.67;;;2.33;;
15764;SDS011;7983;50.744;7.086;2023-02-20T08:42:48;3.70;;;2.47;;
15764;SDS011;7983;50.744;7.086;2023-02-20T08:45:14;3.27;;;2.10;;
15764;SDS011;7983;50.744;7.086;2023-02-20T08:47:42;3.00;;;2.20;;
15764;SDS011;7983;50.744;7.086;2023-02-20T08:50:07;2.97;;;2.23;;
15764;SDS011;7983;50.744;7.086;2023-02-20T08:52:35;4.10;;;2.37;;
15764;SDS011;7983;50.744;7.086;2023-02-20T08:55:01;3.10;;;2.40;;
15764;SDS011;7983;50.744;7.086;2023-02-20T08:57:29;4.40;;;2.50;;
15764;SDS011;7983;50.744;7.086;2023-02-20T08:59:57;3.73;;;2.23;;
15764;SDS011;7983;50.744;7.086;2023-02-20T09:02:23;3.10;;;2.30;;
15764;SDS011;7983;50.744;7.086;2023-02-20T09:04:52;4.83;;;2.80;;
15764;SDS011;7983;50.744;7.086;2023-02-20T09:07:18;3.57;;;2.67;;
15764;SDS011;7983;50.744;7.086;2023-02-20T09:09:44;3.90;;;2.60;;
15764;SDS011;7983;50.744;7.086;2023-02-20T09:12:09;4.30;;;2.60;;
15764;SDS011;7983;50.744;7.086;2023-02-20T09:14:35;4.37;;;2.77;;
15764;SDS011;7983;50.744;7.086;2023-02-20T09:17:03;4.13;;;2.70;;
15764;SDS011;7983;50.744;7.086;2023-02-20T09:19:32;6.13;;;2.90;;
15764;SDS011;7983;50.744;7.086;2023-02-20T09:22:24;4.40;;;2.90;;
15764;SDS011;7983;50.744;7.086;2023-02-20T09:24:51;6.00;;;2.97;;
15764;SDS011;7983;50.744;7.086;2023-02-20T09:27:20;4.20;;;2.50;;
15764;SDS011;7983;50.744;7.086;2023-02-20T09:29:46;4.63;;;2.67;;
15764;SDS011;7983;50.744;7.086;2023-02-20T09:32:14;4.03;;;2.83;;
15764;SDS011;7983;50.744;7.086;2023-02-20T09:34:42;3.90;;;2.93;;
15764;SDS011;7983;50.744;7.086;2023-02-20T09:37:09;3.27;;;2.70;;
15764;SDS011;7983;50.744;7.086;2023-02-20T09:39:35;4.20;;;3.17;;
15764;SDS011;7983;50.744;7.086;2023-02-20T09:44:59;3.37;;;2.63;;
15764;SDS011;7983;50.744;7.086;2023-02-20T09:47:37;5.03;;;3.20;;
15764;SDS011;7983;50.744;7.086;2023-02-20T09:50:08;5.78;;;3.50;;
15764;SDS011;7983;50.744;7.086;2023-02-20T09:52:39;5.55;;;3.15;;
15764;SDS011;7983;50.744;7.086;2023-02-20T09:55:13;3.63;;;3.00;;
15764;SDS011;7983;50.744;7.086;2023-02-20T09:57:48;4.22;;;2.63;;
15764;SDS011;7983;50.744;7.086;2023-02-20T10:00:20;4.57;;;2.60;;
15764;SDS011;7983;50.744;7.086;2023-02-20T10:05:54;6.18;;;3.20;;
15764;SDS011;7983;50.744;7.086;2023-02-20T10:08:21;4.68;;;3.25;;
15764;SDS011;7983;50.744;7.086;2023-02-20T10:10:48;4.03;;;2.38;;
15764;SDS011;7983;50.744;7.086;2023-02-20T10:16:27;4.93;;;2.60;;
15764;SDS011;7983;50.744;7.086;2023-02-20T10:22:08;4.30;;;2.58;;
15764;SDS011;7983;50.744;7.086;2023-02-20T10:29:54;4.55;;;2.90;;
15764;SDS011;7983;50.744;7.086;2023-02-20T10:32:24;4.20;;;2.50;;
15764;SDS011;7983;50.744;7.086;2023-02-20T10:35:17;5.13;;;2.83;;
15764;SDS011;7983;50.744;7.086;2023-02-20T10:37:48;4.03;;;2.65;;
15764;SDS011;7983;50.744;7.086;2023-02-20T10:43:19;5.40;;;3.22;;
15764;SDS011;7983;50.744;7.086;2023-02-20T10:48:29;4.35;;;2.92;;
15764;SDS011;7983;50.744;7.086;2023-02-20T10:51:34;3.90;;;3.03;;
15764;SDS011;7983;50.744;7.086;2023-02-20T10:54:00;3.72;;;2.70;;
15764;SDS011;7983;50.744;7.086;2023-02-20T10:56:37;4.53;;;2.70;;
15764;SDS011;7983;50.744;7.086;2023-02-20T11:01:51;4.20;;;2.70;;
15764;SDS011;7983;50.744;7.086;2023-02-20T11:04:21;4.30;;;3.00;;
15764;SDS011;7983;50.744;7.086;2023-02-20T11:06:59;4.38;;;2.85;;
15764;SDS011;7983;50.744;7.086;2023-02-20T11:09:28;4.07;;;2.80;;
15764;SDS011;7983;50.744;7.086;2023-02-20T11:11:56;4.63;;;3.20;;
15764;SDS011;7983;50.744;7.086;2023-02-20T11:14:23;4.72;;;3.00;;
15764;SDS011;7983;50.744;7.086;2023-02-20T11:17:06;3.65;;;2.85;;
15764;SDS011;7983;50.744;7.086;2023-02-20T11:19:44;4.75;;;2.83;;
15764;SDS011;7983;50.744;7.086;2023-02-20T11:22:12;4.43;;;3.00;;
15764;SDS011;7983;50.744;7.086;2023-02-20T11:24:40;5.47;;;3.33;;
15764;SDS011;7983;50.744;7.086;2023-02-20T11:27:13;4.32;;;3.20;;
15764;SDS011;7983;50.744;7.086;2023-02-20T11:30:10;3.90;;;2.85;;
15764;SDS011;7983;50.744;7.086;2023-02-20T11:32:58;4.95;;;3.03;;
15764;SDS011;7983;50.744;7.086;2023-02-20T11:35:28;4.80;;;3.38;;
15764;SDS011;7983;50.744;7.086;2023-02-20T11:40:41;4.85;;;3.05;;
15764;SDS011;7983;50.744;7.086;2023-02-20T11:45:42;6.35;;;2.95;;
15764;SDS011;7983;50.744;7.086;2023-02-20T11:48:19;3.55;;;2.72;;
15764;SDS011;7983;50.744;7.086;2023-02-20T11:50:49;3.63;;;3.25;;
15764;SDS011;7983;50.744;7.086;2023-02-20T11:55:45;4.53;;;3.53;;
15764;SDS011;7983;50.744;7.086;2023-02-20T11:58:22;4.68;;;3.25;;
15764;SDS011;7983;50.744;7.086;2023-02-20T12:00:54;5.85;;;4.05;;
15764;SDS011;7983;50.744;7.086;2023-02-20T12:03:23;4.95;;;3.75;;
15764;SDS011;7983;50.744;7.086;2023-02-20T12:05:52;6.18;;;3.78;;
15764;SDS011;7983;50.744;7.086;2023-02-20T12:11:07;7.28;;;4.18;;
15764;SDS011;7983;50.744;7.086;2023-02-20T12:13:51;5.55;;;4.05;;
15764;SDS011;7983;50.744;7.086;2023-02-20T12:43:53;6.85;;;4.78;;
15764;SDS011;7983;50.744;7.086;2023-02-20T12:49:11;7.13;;;5.28;;
15764;SDS011;7983;50.744;7.086;2023-02-20T12:51:46;6.13;;;4.85;;
15764;SDS011;7983;50.744;7.086;2023-02-20T12:59:47;6.97;;;4.85;;
15764;SDS011;7983;50.744;7.086;2023-02-20T13:02:36;5.97;;;4.80;;
15764;SDS011;7983;50.744;7.086;2023-02-20T13:05:17;6.55;;;5.32;;
15764;SDS011;7983;50.744;7.086;2023-02-20T13:10:26;7.57;;;5.68;;
15764;SDS011;7983;50.744;7.086;2023-02-20T13:12:59;8.55;;;5.78;;
15764;SDS011;7983;50.744;7.086;2023-02-20T13:20:45;9.35;;;6.38;;
15764;SDS011;7983;50.744;7.086;2023-02-20T13:25:41;9.80;;;7.03;;
15764;SDS011;7983;50.744;7.086;2023-02-20T13:34:30;8.50;;;6.47;;
15764;SDS011;7983;50.744;7.086;2023-02-20T13:36:41;10.48;;;7.25;;
15764;SDS011;7983;50.744;7.086;2023-02-20T13:54:53;8.07;;;6.07;;
15764;SDS011;7983;50.744;7.086;2023-02-20T13:57:44;9.25;;;6.75;;
15764;SDS011;7983;50.744;7.086;2023-02-20T14:00:52;9.82;;;6.72;;
15764;SDS011;7983;50.744;7.086;2023-02-20T14:03:28;9.00;;;6.28;;
15764;SDS011;7983;50.744;7.086;2023-02-20T14:08:35;7.90;;;5.90;;
15764;SDS011;7983;50.744;7.086;2023-02-20T14:11:09;7.85;;;5.90;;
15764;SDS011;7983;50.744;7.086;2023-02-20T14:13:45;7.47;;;5.35;;
15764;SDS011;7983;50.744;7.086;2023-02-20T14:16:23;8.80;;;5.70;;
15764;SDS011;7983;50.744;7.086;2023-02-20T14:21:40;10.65;;;6.47;;
15764;SDS011;7983;50.744;7.086;2023-02-20T14:24:16;7.05;;;5.28;;
15764;SDS011;7983;50.744;7.086;2023-02-20T14:26:51;8.27;;;5.93;;
15764;SDS011;7983;50.744;7.086;2023-02-20T14:29:30;8.15;;;5.63;;
15764;SDS011;7983;50.744;7.086;2023-02-20T14:32:01;6.65;;;5.05;;
15764;SDS011;7983;50.744;7.086;2023-02-20T14:42:42;7.82;;;5.00;;
15764;SDS011;7983;50.744;7.086;2023-02-20T14:45:14;7.57;;;4.40;;
15764;SDS011;7983;50.744;7.086;2023-02-20T14:47:59;5.30;;;3.60;;
15764;SDS011;7983;50.744;7.086;2023-02-20T14:50:32;6.88;;;4.07;;
15764;SDS011;7983;50.744;7.086;2023-02-20T14:53:00;5.15;;;3.63;;
15764;SDS011;7983;50.744;7.086;2023-02-20T14:55:28;5.35;;;3.65;;
15764;SDS011;7983;50.744;7.086;2023-02-20T14:57:54;4.45;;;3.30;;
15764;SDS011;7983;50.744;7.086;2023-02-20T15:02:47;4.85;;;3.47;;
15764;SDS011;7983;50.744;7.086;2023-02-20T15:05:25;6.65;;;3.50;;
15764;SDS011;7983;50.744;7.086;2023-02-20T15:10:48;8.18;;;4.22;;
15764;SDS011;7983;50.744;7.086;2023-02-20T15:13:20;7.63;;;4.93;;
15764;SDS011;7983;50.744;7.086;2023-02-20T15:15:50;7.95;;;5.15;;
15764;SDS011;7983;50.744;7.086;2023-02-20T15:21:00;7.35;;;4.80;;
15764;SDS011;7983;50.744;7.086;2023-02-20T15:23:31;7.60;;;5.13;;
15764;SDS011;7983;50.744;7.086;2023-02-20T15:31:45;7.80;;;4.63;;
15764;SDS011;7983;50.744;7.086;2023-02-20T15:34:19;6.65;;;4.88;;
15764;SDS011;7983;50.744;7.086;2023-02-20T15:36:50;7.60;;;4.65;;
15764;SDS011;7983;50.744;7.086;2023-02-20T15:39:26;7.68;;;5.00;;
15764;SDS011;7983;50.744;7.086;2023-02-20T15:41:54;7.25;;;4.88;;
15764;SDS011;7983;50.744;7.086;2023-02-20T15:44:20;8.45;;;5.32;;
15764;SDS011;7983;50.744;7.086;2023-02-20T15:46:50;9.02;;;6.35;;
15764;SDS011;7983;50.744;7.086;2023-02-20T15:49:16;9.38;;;6.30;;
15764;SDS011;7983;50.744;7.086;2023-02-20T15:51:43;11.15;;;7.63;;
15764;SDS011;7983;50.744;7.086;2023-02-20T15:54:12;9.68;;;6.25;;
15764;SDS011;7983;50.744;7.086;2023-02-20T15:56:41;8.75;;;5.97;;
15764;SDS011;7983;50.744;7.086;2023-02-20T15:59:09;11.15;;;7.07;;
15764;SDS011;7983;50.744;7.086;2023-02-20T16:01:36;9.40;;;6.57;;
15764;SDS011;7983;50.744;7.086;2023-02-20T16:04:05;10.80;;;6.55;;
15764;SDS011;7983;50.744;7.086;2023-02-20T16:06:31;10.00;;;6.40;;
15764;SDS011;7983;50.744;7.086;2023-02-20T16:08:59;10.32;;;6.85;;
15764;SDS011;7983;50.744;7.086;2023-02-20T16:11:32;11.00;;;7.18;;
15764;SDS011;7983;50.744;7.086;2023-02-20T16:14:02;11.88;;;7.38;;
15764;SDS011;7983;50.744;7.086;2023-02-20T16:16:35;9.70;;;7.50;;
15764;SDS011;7983;50.744;7.086;2023-02-20T16:19:16;11.43;;;6.95;;
15764;SDS011;7983;50.744;7.086;2023-02-20T16:21:46;11.43;;;7.18;;
15764;SDS011;7983;50.744;7.086;2023-02-20T16:24:12;9.38;;;6.45;;
15764;SDS011;7983;50.744;7.086;2023-02-20T16:26:44;8.73;;;6.30;;
15764;SDS011;7983;50.744;7.086;2023-02-20T16:29:16;8.95;;;6.35;;
15764;SDS011;7983;50.744;7.086;2023-02-20T16:34:18;12.40;;;7.53;;
15764;SDS011;7983;50.744;7.086;2023-02-20T16:36:44;10.77;;;7.38;;
15764;SDS011;7983;50.744;7.086;2023-02-20T16:39:15;10.00;;;7.50;;
15764;SDS011;7983;50.744;7.086;2023-02-20T16:41:46;11.57;;;8.18;;
15764;SDS011;7983;50.744;7.086;2023-02-20T16:44:22;14.20;;;8.73;;
15764;SDS011;7983;50.744;7.086;2023-02-20T16:46:54;14.40;;;8.65;;
15764;SDS011;7983;50.744;7.086;2023-02-20T16:49:19;12.25;;;7.88;;
15764;SDS011;7983;50.744;7.086;2023-02-20T16:51:48;10.40;;;7.47;;
15764;SDS011;7983;50.744;7.086;2023-02-20T16:54:15;10.05;;;7.38;;
15764;SDS011;7983;50.744;7.086;2023-02-20T16:56:41;10.10;;;6.78;;
15764;SDS011;7983;50.744;7.086;2023-02-20T16:59:16;9.75;;;6.18;;
15764;SDS011;7983;50.744;7.086;2023-02-20T17:01:42;11.75;;;8.50;;
15764;SDS011;7983;50.744;7.086;2023-02-20T17:04:07;9.65;;;7.30;;
15764;SDS011;7983;50.744;7.086;2023-02-20T17:06:33;7.50;;;5.97;;
15764;SDS011;7983;50.744;7.086;2023-02-20T17:08:59;8.80;;;6.40;;
15764;SDS011;7983;50.744;7.086;2023-02-20T17:11:26;7.28;;;5.43;;
15764;SDS011;7983;50.744;7.086;2023-02-20T17:13:51;8.10;;;6.10;;
15764;SDS011;7983;50.744;7.086;2023-02-20T17:16:17;11.93;;;5.95;;
15764;SDS011;7983;50.744;7.086;2023-02-20T17:18:43;7.75;;;5.60;;
15764;SDS011;7983;50.744;7.086;2023-02-20T17:21:09;8.30;;;5.95;;
15764;SDS011;7983;50.744;7.086;2023-02-20T17:23:35;8.93;;;6.38;;
15764;SDS011;7983;50.744;7.086;2023-02-20T17:26:01;7.65;;;5.57;;
15764;SDS011;7983;50.744;7.086;2023-02-20T17:28:29;7.28;;;5.78;;
15764;SDS011;7983;50.744;7.086;2023-02-20T17:30:55;10.30;;;6.45;;
15764;SDS011;7983;50.744;7.086;2023-02-20T17:33:23;7.22;;;6.22;;
15764;SDS011;7983;50.744;7.086;2023-02-20T17:35:49;9.05;;;6.43;;
15764;SDS011;7983;50.744;7.086;2023-02-20T17:38:14;9.82;;;6.47;;
15764;SDS011;7983;50.744;7.086;2023-02-20T17:40:40;7.32;;;5.97;;
15764;SDS011;7983;50.744;7.086;2023-02-20T17:43:06;8.88;;;6.00;;
15764;SDS011;7983;50.744;7.086;2023-02-20T17:45:34;8.30;;;6.35;;
15764;SDS011;7983;50.744;7.086;2023-02-20T17:47:59;8.13;;;6.35;;
15764;SDS011;7983;50.744;7.086;2023-02-20T17:50:26;8.75;;;6.18;;
15764;SDS011;7983;50.744;7.086;2023-02-20T17:52:52;8.68;;;6.13;;
15764;SDS011;7983;50.744;7.086;2023-02-20T17:55:24;7.50;;;5.80;;
15764;SDS011;7983;50.744;7.086;2023-02-20T17:57:53;7.87;;;5.77;;
15764;SDS011;7983;50.744;7.086;2023-02-20T18:00:20;7.93;;;5.97;;
15764;SDS011;7983;50.744;7.086;2023-02-20T18:02:46;8.02;;;6.35;;
15764;SDS011;7983;50.744;7.086;2023-02-20T18:05:12;9.13;;;6.37;;
15764;SDS011;7983;50.744;7.086;2023-02-20T18:07:37;7.28;;;5.80;;
15764;SDS011;7983;50.744;7.086;2023-02-20T18:10:03;7.30;;;6.20;;
15764;SDS011;7983;50.744;7.086;2023-02-20T18:15:55;6.53;;;5.60;;
15764;SDS011;7983;50.744;7.086;2023-02-20T18:18:25;7.97;;;5.68;;
15764;SDS011;7983;50.744;7.086;2023-02-20T18:20:53;8.63;;;6.10;;